Time;durP1;ratioP1;P1;durP2;ratioP2;P2;SDS_P1;SDS_P2;PMS_P1;PMS_P2;Temp;Humidity;BMP_temperature;BMP_pressure;BME280_temperature;BME280_humidity;BME280_pressure;Samples;Min_cycle;Max_cycle;Signal;HPM_P1;HPM_P2
2021/12/01 00:01:41;;;;;;;15.33;9.90;;;2.10;99.90;;;;;;5134345;27;20673;-67
2021/12/01 00:04:09;;;;;;;15.53;10.23;;;2.20;99.90;;;;;;5134202;27;20207;-66
2021/12/01 00:06:36;;;;;;;15.00;9.33;;;2.20;99.90;;;;;;5133949;27;20223;-67
2021/12/01 00:09:05;;;;;;;14.50;10.30;;;2.30;99.90;;;;;;5133916;27;20202;-67
2021/12/01 00:11:32;;;;;;;15.67;10.30;;;2.30;99.90;;;;;;5133817;27;20207;-66
2021/12/01 00:13:59;;;;;;;15.37;9.60;;;2.30;99.90;;;;;;5133939;27;20704;-67
2021/12/01 00:16:26;;;;;;;14.77;9.70;;;2.30;99.90;;;;;;5134014;27;20683;-66
2021/12/01 00:18:55;;;;;;;16.60;10.30;;;2.30;99.90;;;;;;5134086;27;20674;-66
2021/12/01 00:21:22;;;;;;;17.77;11.00;;;2.30;99.90;;;;;;5118942;27;20226;-67
2021/12/01 00:23:49;;;;;;;16.70;10.37;;;2.20;99.90;;;;;;5113552;28;20268;-67
2021/12/01 00:26:16;;;;;;;15.97;10.90;;;2.20;99.90;;;;;;5113000;28;20275;-66
2021/12/01 00:28:43;;;;;;;15.63;10.40;;;2.10;99.90;;;;;;5113016;28;20206;-66
2021/12/01 00:31:11;;;;;;;15.43;9.83;;;2.00;99.90;;;;;;5114404;27;20252;-66
2021/12/01 00:33:38;;;;;;;15.20;10.10;;;1.90;99.90;;;;;;5113347;28;20666;-65
2021/12/01 00:36:08;;;;;;;15.00;10.13;;;1.90;99.90;;;;;;5117054;27;20195;-66
2021/12/01 00:38:35;;;;;;;13.93;9.57;;;1.90;99.90;;;;;;5133406;27;20246;-66
2021/12/01 00:41:04;;;;;;;14.37;10.03;;;1.90;99.90;;;;;;5131327;27;20298;-65
2021/12/01 00:43:32;;;;;;;15.17;10.30;;;1.80;99.90;;;;;;5118452;27;20210;-66
2021/12/01 00:46:08;;;;;;;14.57;10.03;;;1.70;99.90;;;;;;5112977;28;20606;-67
2021/12/01 00:48:36;;;;;;;16.63;10.97;;;1.70;99.90;;;;;;5113071;28;20645;-65
2021/12/01 00:51:03;;;;;;;15.83;10.47;;;1.70;99.90;;;;;;5127176;27;20203;-66
2021/12/01 00:53:31;;;;;;;16.90;10.77;;;1.70;99.90;;;;;;5133294;27;20214;-66
2021/12/01 00:55:59;;;;;;;17.57;10.30;;;1.80;99.90;;;;;;5133224;27;20199;-66
2021/12/01 00:58:26;;;;;;;18.00;11.63;;;1.80;99.90;;;;;;5133028;27;20210;-66
2021/12/01 01:00:54;;;;;;;16.47;10.50;;;1.80;99.90;;;;;;5131415;27;20202;-66
2021/12/01 01:03:21;;;;;;;16.10;11.17;;;1.80;99.90;;;;;;5133406;27;20202;-67
2021/12/01 01:05:49;;;;;;;17.37;11.30;;;1.80;99.90;;;;;;5131902;27;20579;-68
2021/12/01 01:08:17;;;;;;;14.73;9.67;;;1.80;99.90;;;;;;5132982;27;20279;-67
2021/12/01 01:16:26;;;;;;;19.53;11.53;;;1.90;99.90;;;;;;5112126;28;20557;-65
2021/12/01 01:19:01;;;;;;;17.87;11.43;;;1.90;99.90;;;;;;5113602;28;20203;-66
2021/12/01 01:21:32;;;;;;;18.53;11.97;;;1.80;99.90;;;;;;5112678;28;20191;-66
2021/12/01 01:23:59;;;;;;;19.07;12.23;;;1.80;99.90;;;;;;5112549;28;20194;-67
2021/12/01 01:26:28;;;;;;;16.00;10.63;;;1.80;99.90;;;;;;5112304;28;20695;-67
2021/12/01 01:28:55;;;;;;;17.73;11.40;;;1.80;99.90;;;;;;5131883;28;20710;-66
2021/12/01 01:31:23;;;;;;;16.63;10.60;;;1.70;99.90;;;;;;5132902;28;20230;-67
2021/12/01 01:33:54;;;;;;;17.60;11.77;;;1.70;99.90;;;;;;5132666;28;20209;-65
2021/12/01 01:36:21;;;;;;;15.93;10.50;;;1.70;99.90;;;;;;5132982;28;20187;-67
2021/12/01 01:38:48;;;;;;;18.50;11.33;;;1.70;99.90;;;;;;5117924;28;20202;-67
2021/12/01 01:41:16;;;;;;;17.60;11.50;;;1.70;99.90;;;;;;5129677;28;20206;-66
2021/12/01 01:43:46;;;;;;;18.63;11.63;;;1.70;99.90;;;;;;5130964;28;20198;-67
2021/12/01 01:46:14;;;;;;;15.70;11.03;;;1.70;99.90;;;;;;5132708;28;20219;-71
2021/12/01 01:48:50;;;;;;;18.50;11.80;;;1.70;99.90;;;;;;5132380;28;20226;-68
2021/12/01 01:51:19;;;;;;;16.30;10.40;;;1.70;99.90;;;;;;5131070;28;20628;-68
2021/12/01 01:53:48;;;;;;;19.93;11.37;;;1.70;99.90;;;;;;5132015;28;20198;-67
2021/12/01 01:56:16;;;;;;;17.77;11.07;;;1.60;99.90;;;;;;5133030;28;20250;-67
2021/12/01 01:58:44;;;;;;;16.20;10.87;;;1.60;99.90;;;;;;5132493;28;20201;-66
2021/12/01 02:01:22;;;;;;;17.13;11.33;;;1.60;99.90;;;;;;5132418;28;20206;-66
2021/12/01 02:03:49;;;;;;;16.10;11.63;;;1.50;99.90;;;;;;5132344;28;20194;-68
2021/12/01 02:06:22;;;;;;;17.63;11.20;;;1.50;99.90;;;;;;5132015;28;20230;-65
2021/12/01 02:08:50;;;;;;;15.97;10.97;;;1.40;99.90;;;;;;5132764;27;20535;-66
2021/12/01 02:11:19;;;;;;;15.27;10.63;;;1.30;99.90;;;;;;5132740;27;20680;-68
2021/12/01 02:13:49;;;;;;;16.70;11.07;;;1.30;99.90;;;;;;5132993;28;20781;-67
2021/12/01 02:16:17;;;;;;;16.33;11.67;;;1.30;99.90;;;;;;5132305;28;20219;-67
2021/12/01 02:18:45;;;;;;;17.23;11.17;;;1.30;99.90;;;;;;5132612;28;20676;-66
2021/12/01 02:21:15;;;;;;;18.80;12.17;;;1.30;99.90;;;;;;5132571;28;20570;-66
2021/12/01 02:23:45;;;;;;;17.00;10.77;;;1.20;99.90;;;;;;5132122;28;20202;-67
2021/12/01 02:26:14;;;;;;;17.47;10.17;;;1.20;99.90;;;;;;5133883;27;20245;-66
2021/12/01 02:28:46;;;;;;;14.00;10.10;;;1.20;99.90;;;;;;5136252;27;20225;-66
2021/12/01 02:31:14;;;;;;;17.23;11.00;;;1.20;99.90;;;;;;5135991;27;20194;-67
2021/12/01 02:33:42;;;;;;;14.93;10.73;;;1.20;99.90;;;;;;5136244;27;20680;-66
2021/12/01 02:36:09;;;;;;;16.20;11.37;;;1.30;99.90;;;;;;5135699;27;20213;-67
2021/12/01 02:38:40;;;;;;;15.90;10.67;;;1.30;99.90;;;;;;5136106;27;20199;-66
2021/12/01 02:41:07;;;;;;;16.77;10.33;;;1.30;99.90;;;;;;5136214;27;20608;-66
2021/12/01 02:43:35;;;;;;;17.67;10.60;;;1.30;99.90;;;;;;5136039;27;20210;-66
2021/12/01 02:46:02;;;;;;;16.10;10.60;;;1.30;99.90;;;;;;5135723;27;20223;-66
2021/12/01 02:48:30;;;;;;;16.27;10.13;;;1.30;99.90;;;;;;5135626;27;20222;-66
2021/12/01 02:50:58;;;;;;;15.57;10.40;;;1.30;99.90;;;;;;5135862;27;20230;-67
2021/12/01 02:53:26;;;;;;;15.67;9.93;;;1.40;99.90;;;;;;5135750;27;20635;-66
2021/12/01 02:55:56;;;;;;;14.90;10.40;;;1.30;99.90;;;;;;5135354;27;20255;-66
2021/12/01 02:58:25;;;;;;;15.20;10.40;;;1.40;99.90;;;;;;5135647;27;20183;-66
2021/12/01 03:00:53;;;;;;;16.40;10.53;;;1.40;99.90;;;;;;5135356;27;20238;-67
2021/12/01 03:03:21;;;;;;;17.47;11.07;;;1.40;99.90;;;;;;5135439;27;20201;-67
2021/12/01 03:05:49;;;;;;;15.00;11.10;;;1.40;99.90;;;;;;5130981;27;20203;-66
2021/12/01 03:08:17;;;;;;;14.87;10.13;;;1.50;99.90;;;;;;5135556;27;20218;-67
2021/12/01 03:10:45;;;;;;;13.47;9.90;;;1.50;99.90;;;;;;5135046;27;20203;-68
2021/12/01 03:13:15;;;;;;;16.30;10.20;;;1.50;99.90;;;;;;5135382;27;20653;-67
2021/12/01 03:15:42;;;;;;;16.37;10.73;;;1.60;99.90;;;;;;5135283;27;20198;-66
2021/12/01 03:18:10;;;;;;;15.27;11.17;;;1.60;99.90;;;;;;5135308;27;20542;-67
2021/12/01 03:20:37;;;;;;;16.70;10.60;;;1.60;99.90;;;;;;5135180;27;20210;-67
2021/12/01 03:23:04;;;;;;;16.17;10.60;;;1.60;99.90;;;;;;5134468;27;20198;-66
2021/12/01 03:25:31;;;;;;;13.93;9.80;;;1.60;99.90;;;;;;5125707;27;20676;-68
2021/12/01 03:27:58;;;;;;;15.57;10.97;;;1.70;99.90;;;;;;5126051;27;20599;-65
2021/12/01 03:30:33;;;;;;;15.20;10.53;;;1.70;99.90;;;;;;5132698;27;20213;-66
2021/12/01 03:33:00;;;;;;;14.17;9.73;;;1.70;99.90;;;;;;5121100;27;20202;-66
2021/12/01 03:35:28;;;;;;;15.20;10.23;;;1.70;99.90;;;;;;5114011;28;20210;-66
2021/12/01 03:37:55;;;;;;;14.40;9.43;;;1.70;99.90;;;;;;5113290;28;20200;-67
2021/12/01 03:40:22;;;;;;;15.90;10.63;;;1.80;99.90;;;;;;5114436;28;20204;-66
2021/12/01 03:42:49;;;;;;;14.20;9.43;;;1.80;99.90;;;;;;5123787;27;20198;-67
2021/12/01 03:45:17;;;;;;;15.63;10.73;;;1.80;99.90;;;;;;5134134;27;20207;-66
2021/12/01 03:47:46;;;;;;;16.57;9.93;;;1.80;99.90;;;;;;5134505;27;20226;-66
2021/12/01 03:50:14;;;;;;;14.70;10.37;;;1.80;99.90;;;;;;5134743;27;20566;-67
2021/12/01 03:52:42;;;;;;;17.17;10.93;;;1.80;99.90;;;;;;5123644;27;20668;-67
2021/12/01 03:55:10;;;;;;;14.33;10.53;;;1.80;99.90;;;;;;5114018;28;20207;-66
2021/12/01 03:57:37;;;;;;;18.07;11.00;;;1.90;99.90;;;;;;5114364;28;20231;-66
2021/12/01 04:00:07;;;;;;;15.30;10.23;;;1.80;99.90;;;;;;5113444;28;20215;-67
2021/12/01 04:02:34;;;;;;;15.00;10.37;;;1.80;99.90;;;;;;5122954;27;20199;-66
2021/12/01 04:05:03;;;;;;;15.23;11.00;;;1.90;99.90;;;;;;5134345;27;20210;-67
2021/12/01 04:07:31;;;;;;;15.80;9.87;;;1.80;99.90;;;;;;5134440;27;20219;-66
2021/12/01 04:09:58;;;;;;;15.07;10.73;;;1.80;99.90;;;;;;5134302;27;20596;-68
2021/12/01 04:12:27;;;;;;;15.87;10.73;;;1.90;99.90;;;;;;5125670;27;20195;-67
2021/12/01 04:14:54;;;;;;;15.70;10.53;;;1.80;99.90;;;;;;5113082;28;20296;-66
2021/12/01 04:17:21;;;;;;;18.20;11.13;;;1.80;99.90;;;;;;5113663;28;20616;-67
2021/12/01 04:19:48;;;;;;;15.97;11.13;;;1.80;99.90;;;;;;5113184;28;20214;-67
2021/12/01 04:22:17;;;;;;;17.27;11.27;;;1.80;99.90;;;;;;5119303;27;20194;-67
2021/12/01 04:24:44;;;;;;;18.03;11.83;;;1.90;99.90;;;;;;5133925;27;20210;-68
2021/12/01 04:27:12;;;;;;;16.47;11.03;;;1.80;99.90;;;;;;5133695;27;20203;-67
2021/12/01 04:29:40;;;;;;;15.63;10.67;;;1.80;99.90;;;;;;5134086;27;20202;-67
2021/12/01 04:32:09;;;;;;;17.33;11.93;;;1.80;99.90;;;;;;5128464;27;20199;-67
2021/12/01 04:34:36;;;;;;;17.30;11.93;;;1.90;99.90;;;;;;5113241;28;20231;-68
2021/12/01 04:37:03;;;;;;;20.20;12.37;;;1.90;99.90;;;;;;5112815;28;20260;-67
2021/12/01 04:39:32;;;;;;;18.33;12.63;;;1.90;99.90;;;;;;5112934;28;20196;-67
2021/12/01 04:42:04;;;;;;;18.63;12.10;;;1.90;99.90;;;;;;5115848;27;20211;-67
2021/12/01 04:44:33;;;;;;;17.17;12.00;;;1.90;99.90;;;;;;5113121;27;20206;-67
2021/12/01 04:47:02;;;;;;;19.30;12.20;;;1.90;99.90;;;;;;5112528;28;20219;-67
2021/12/01 04:49:31;;;;;;;17.43;11.17;;;1.90;99.90;;;;;;5113054;28;20322;-68
2021/12/01 04:52:01;;;;;;;17.80;11.37;;;1.90;99.90;;;;;;5115088;27;20691;-66
2021/12/01 04:54:28;;;;;;;17.70;11.40;;;1.90;99.90;;;;;;5133235;27;20209;-67
2021/12/01 04:56:57;;;;;;;15.87;11.30;;;2.00;99.90;;;;;;5133175;27;20221;-67
2021/12/01 04:59:24;;;;;;;16.93;11.60;;;2.00;99.90;;;;;;5133387;27;20203;-68
2021/12/01 05:01:54;;;;;;;15.03;10.40;;;2.00;99.90;;;;;;5132044;27;20545;-69
2021/12/01 05:04:21;;;;;;;15.07;10.07;;;2.00;99.90;;;;;;5112618;28;20207;-67
2021/12/01 05:06:48;;;;;;;17.53;10.90;;;2.00;99.90;;;;;;5112550;28;20207;-66
2021/12/01 05:09:16;;;;;;;16.00;10.90;;;2.00;99.90;;;;;;5112759;28;20219;-68
2021/12/01 05:11:43;;;;;;;13.17;9.23;;;2.00;99.90;;;;;;5112650;28;20207;-68
2021/12/01 05:14:13;;;;;;;15.67;9.90;;;2.00;99.90;;;;;;5113259;27;20231;-68
2021/12/01 05:16:41;;;;;;;14.40;10.27;;;2.10;99.90;;;;;;5112318;28;20207;-68
2021/12/01 05:19:10;;;;;;;13.17;9.10;;;2.10;99.90;;;;;;5112302;28;20294;-68
2021/12/01 05:21:37;;;;;;;14.07;10.00;;;2.00;99.90;;;;;;5112306;28;20248;-67
2021/12/01 05:24:04;;;;;;;13.53;9.30;;;2.10;99.90;;;;;;5131752;27;20680;-67
2021/12/01 05:26:32;;;;;;;14.37;10.00;;;2.00;99.90;;;;;;5132939;27;20206;-66
2021/12/01 05:28:59;;;;;;;12.00;9.17;;;1.90;99.90;;;;;;5133257;27;20715;-67
2021/12/01 05:31:27;;;;;;;12.77;9.63;;;1.90;99.90;;;;;;5133010;27;20664;-66
2021/12/01 05:33:54;;;;;;;14.40;9.87;;;1.90;99.90;;;;;;5114947;28;20571;-66
2021/12/01 05:36:21;;;;;;;12.33;9.43;;;1.90;99.90;;;;;;5112600;28;20618;-67
2021/12/01 05:38:49;;;;;;;14.43;10.30;;;1.90;99.90;;;;;;5112615;28;20203;-68
2021/12/01 05:41:16;;;;;;;15.10;10.97;;;1.90;99.90;;;;;;5123254;28;20202;-66
2021/12/01 05:43:43;;;;;;;16.37;11.17;;;1.90;99.90;;;;;;5132788;28;20210;-67
2021/12/01 05:46:10;;;;;;;16.00;10.83;;;1.90;99.90;;;;;;5132702;28;20247;-67
2021/12/01 05:48:39;;;;;;;16.50;11.10;;;1.90;99.90;;;;;;5126556;28;20252;-67
2021/12/01 05:51:06;;;;;;;15.00;10.83;;;1.90;99.90;;;;;;5124613;28;20203;-68
2021/12/01 05:53:33;;;;;;;17.07;11.47;;;1.90;99.90;;;;;;5133067;28;20660;-68
2021/12/01 05:56:00;;;;;;;15.33;11.37;;;1.90;99.90;;;;;;5132820;28;20666;-66
2021/12/01 05:58:27;;;;;;;20.70;12.27;;;1.90;99.90;;;;;;5128501;27;20199;-67
2021/12/01 06:00:55;;;;;;;17.37;11.70;;;2.00;99.90;;;;;;5113191;28;20575;-67
2021/12/01 06:03:22;;;;;;;14.87;10.50;;;2.00;99.90;;;;;;5116135;28;20210;-67
2021/12/01 06:05:50;;;;;;;18.07;12.30;;;2.00;99.90;;;;;;5115993;28;20600;-67
2021/12/01 06:08:17;;;;;;;20.00;12.47;;;2.10;99.90;;;;;;5116924;27;20215;-67
2021/12/01 06:10:45;;;;;;;20.27;13.90;;;2.10;99.90;;;;;;5121474;27;20198;-68
2021/12/01 06:13:16;;;;;;;14.43;11.00;;;2.10;99.90;;;;;;5136574;27;20203;-68
2021/12/01 06:15:43;;;;;;;16.93;11.67;;;2.10;99.90;;;;;;5136218;27;20187;-67
2021/12/01 06:18:11;;;;;;;15.97;11.23;;;2.10;99.90;;;;;;5136303;27;20713;-67
2021/12/01 06:20:38;;;;;;;18.47;12.00;;;2.10;99.90;;;;;;5115995;28;20218;-68
2021/12/01 06:23:07;;;;;;;14.37;11.17;;;2.20;99.90;;;;;;5115973;28;20211;-66
2021/12/01 06:25:34;;;;;;;16.77;11.87;;;2.20;99.90;;;;;;5115852;28;20306;-67
2021/12/01 06:28:01;;;;;;;16.33;11.37;;;2.20;99.90;;;;;;5115371;28;20203;-65
2021/12/01 06:30:32;;;;;;;16.27;11.03;;;2.20;99.90;;;;;;5115221;28;20676;-68
2021/12/01 06:32:59;;;;;;;16.33;11.67;;;2.30;99.90;;;;;;5115930;28;20649;-67
2021/12/01 06:35:26;;;;;;;18.10;11.60;;;2.30;99.90;;;;;;5114794;28;20203;-66
2021/12/01 06:37:55;;;;;;;16.30;10.87;;;2.30;99.90;;;;;;5115498;28;20207;-68
2021/12/01 06:40:24;;;;;;;15.77;11.07;;;2.40;99.90;;;;;;5115709;28;20203;-67
2021/12/01 06:42:51;;;;;;;15.67;10.60;;;2.40;99.90;;;;;;5115210;28;20214;-67
2021/12/01 06:45:19;;;;;;;16.00;11.17;;;2.40;99.90;;;;;;5115170;28;20232;-67
2021/12/01 06:47:46;;;;;;;16.00;10.67;;;2.40;99.90;;;;;;5115347;28;20214;-68
2021/12/01 06:50:14;;;;;;;16.87;10.97;;;2.50;99.90;;;;;;5115151;28;20252;-67
2021/12/01 06:52:41;;;;;;;14.00;10.33;;;2.50;99.90;;;;;;5114414;28;20199;-68
2021/12/01 06:55:10;;;;;;;14.03;10.47;;;2.50;99.90;;;;;;5115005;28;20226;-68
2021/12/01 06:57:39;;;;;;;14.83;10.60;;;2.50;99.90;;;;;;5115318;28;20575;-68
2021/12/01 07:00:09;;;;;;;14.03;10.13;;;2.50;99.90;;;;;;5115318;28;20696;-68
2021/12/01 07:02:36;;;;;;;14.70;10.63;;;2.50;99.90;;;;;;5126972;27;20218;-66
2021/12/01 07:05:03;;;;;;;15.63;10.87;;;2.50;99.90;;;;;;5122800;27;20231;-68
2021/12/01 07:07:30;;;;;;;20.53;13.03;;;2.50;99.90;;;;;;5114918;28;20559;-66
2021/12/01 07:09:57;;;;;;;29.80;16.20;;;2.60;99.90;;;;;;5115161;28;20704;-68
2021/12/01 07:12:24;;;;;;;29.17;16.33;;;2.60;99.90;;;;;;5113376;28;20207;-68
2021/12/01 07:14:53;;;;;;;28.83;14.73;;;2.60;99.90;;;;;;5125210;27;20230;-67
2021/12/01 07:17:21;;;;;;;19.17;12.00;;;2.60;99.90;;;;;;5135343;27;20688;-69
2021/12/01 07:19:49;;;;;;;17.33;11.40;;;2.60;99.90;;;;;;5128787;27;20195;-67
2021/12/01 07:22:17;;;;;;;16.50;10.67;;;2.70;99.90;;;;;;5114955;28;20643;-68
2021/12/01 07:24:44;;;;;;;13.67;9.47;;;2.70;99.90;;;;;;5124044;27;20610;-68
2021/12/01 07:27:11;;;;;;;12.80;9.47;;;2.70;99.90;;;;;;5134658;27;20235;-68
2021/12/01 07:29:38;;;;;;;12.27;9.07;;;2.80;99.90;;;;;;5124149;27;20222;-68
2021/12/01 07:32:08;;;;;;;14.47;10.80;;;2.80;99.90;;;;;;5122815;27;20195;-69
2021/12/01 07:34:41;;;;;;;17.87;12.60;;;2.80;99.90;;;;;;5135541;27;20206;-67
2021/12/01 07:37:08;;;;;;;16.33;11.70;;;2.80;99.90;;;;;;5135266;27;20247;-68
2021/12/01 07:39:35;;;;;;;16.53;11.03;;;2.90;99.90;;;;;;5134879;27;20632;-67
2021/12/01 07:42:03;;;;;;;16.03;10.97;;;2.90;99.90;;;;;;5134461;27;20645;-68
2021/12/01 07:44:30;;;;;;;16.37;10.83;;;2.90;99.90;;;;;;5134638;27;20202;-68
2021/12/01 07:46:57;;;;;;;15.00;10.20;;;3.00;99.90;;;;;;5135082;27;20693;-67
2021/12/01 07:49:26;;;;;;;15.23;10.50;;;3.00;99.90;;;;;;5134520;27;20258;-66
2021/12/01 07:51:53;;;;;;;14.50;10.33;;;3.00;99.90;;;;;;5130955;27;20199;-67
2021/12/01 07:54:20;;;;;;;15.53;9.93;;;3.00;99.90;;;;;;5128436;27;20206;-67
2021/12/01 07:56:48;;;;;;;13.97;10.30;;;3.00;99.90;;;;;;5134232;27;20194;-67
2021/12/01 07:59:16;;;;;;;15.20;10.90;;;3.00;99.90;;;;;;5134519;27;20555;-69
2021/12/01 08:01:43;;;;;;;16.13;11.00;;;3.10;99.90;;;;;;5132075;27;20487;-66
2021/12/01 08:04:10;;;;;;;18.97;12.93;;;3.10;99.90;;;;;;5113757;28;20293;-69
2021/12/01 08:06:40;;;;;;;18.40;12.73;;;3.10;99.90;;;;;;5113896;28;20207;-68
2021/12/01 08:09:07;;;;;;;16.73;11.53;;;3.10;99.90;;;;;;5113614;28;20262;-67
2021/12/01 08:11:35;;;;;;;16.30;11.37;;;3.10;99.90;;;;;;5113705;28;20252;-67
2021/12/01 08:14:02;;;;;;;16.53;12.40;;;3.00;99.90;;;;;;5132779;27;20234;-69
2021/12/01 08:16:29;;;;;;;16.00;11.43;;;3.00;99.90;;;;;;5133819;27;20253;-67
2021/12/01 08:18:56;;;;;;;16.10;12.07;;;3.00;99.90;;;;;;5134117;27;20207;-66
2021/12/01 08:21:24;;;;;;;17.33;12.23;;;3.00;99.90;;;;;;5133090;27;20202;-67
2021/12/01 08:23:53;;;;;;;16.90;11.50;;;3.00;99.90;;;;;;5129035;27;20656;-67
2021/12/01 08:26:21;;;;;;;18.77;12.20;;;3.00;99.90;;;;;;5113115;28;20200;-68
2021/12/01 08:28:49;;;;;;;17.40;11.87;;;3.00;99.90;;;;;;5113239;28;20246;-68
2021/12/01 08:31:18;;;;;;;16.90;11.93;;;3.00;99.90;;;;;;5113153;28;20230;-66
2021/12/01 08:33:46;;;;;;;14.93;10.77;;;3.00;99.90;;;;;;5113335;28;20652;-67
2021/12/01 08:36:14;;;;;;;15.67;10.90;;;3.00;99.90;;;;;;5112911;28;20207;-67
2021/12/01 08:38:42;;;;;;;14.83;11.27;;;3.00;99.90;;;;;;5113242;28;20673;-68
2021/12/01 08:41:11;;;;;;;17.07;11.30;;;2.90;99.90;;;;;;5113213;28;20208;-67
2021/12/01 08:43:38;;;;;;;21.07;13.57;;;3.00;99.90;;;;;;5112625;28;20199;-69
2021/12/01 08:46:07;;;;;;;15.67;12.33;;;3.00;99.90;;;;;;5122650;27;20303;-67
2021/12/01 08:48:34;;;;;;;16.20;10.80;;;3.10;99.90;;;;;;5133353;27;20210;-70
2021/12/01 08:51:03;;;;;;;18.00;11.40;;;3.00;99.90;;;;;;5133660;27;20210;-66
2021/12/01 08:53:30;;;;;;;15.20;11.03;;;3.00;99.90;;;;;;5133706;27;20206;-67
2021/12/01 08:55:58;;;;;;;16.70;12.07;;;3.10;99.90;;;;;;5132816;27;20194;-68
2021/12/01 08:58:27;;;;;;;13.13;10.00;;;3.00;99.90;;;;;;5120253;27;21004;-67
2021/12/01 09:00:55;;;;;;;14.80;10.37;;;3.00;99.90;;;;;;5112914;28;20226;-69
2021/12/01 09:03:24;;;;;;;12.73;9.87;;;3.10;99.90;;;;;;5112810;28;20701;-69
2021/12/01 09:05:52;;;;;;;13.17;9.67;;;3.10;99.90;;;;;;5118654;27;20203;-68
2021/12/01 09:08:21;;;;;;;13.13;9.97;;;3.20;99.90;;;;;;5133141;27;20205;-67
2021/12/01 09:10:48;;;;;;;12.17;10.07;;;3.10;99.90;;;;;;5133428;27;20307;-67
2021/12/01 09:13:17;;;;;;;15.00;9.80;;;3.20;99.90;;;;;;5132856;27;20637;-68
2021/12/01 09:15:45;;;;;;;13.73;10.23;;;3.10;99.90;;;;;;5131304;27;20266;-68
2021/12/01 09:18:13;;;;;;;13.47;9.90;;;3.10;99.90;;;;;;5127312;27;20565;-67
2021/12/01 09:20:40;;;;;;;14.73;10.13;;;3.10;99.90;;;;;;5133011;27;20652;-68
2021/12/01 09:23:07;;;;;;;14.93;10.03;;;3.10;99.90;;;;;;5132642;27;20202;-66
2021/12/01 09:25:34;;;;;;;13.70;10.30;;;3.10;99.90;;;;;;5131512;27;20214;-68
2021/12/01 09:28:02;;;;;;;12.30;9.77;;;3.10;99.90;;;;;;5131104;27;20697;-67
2021/12/01 09:30:29;;;;;;;13.77;10.30;;;3.10;99.90;;;;;;5130918;27;20271;-67
2021/12/01 09:32:58;;;;;;;12.53;9.57;;;3.10;99.90;;;;;;5131711;28;20243;-67
2021/12/01 09:35:25;;;;;;;13.47;9.47;;;3.10;99.90;;;;;;5118966;28;20210;-67
2021/12/01 09:37:52;;;;;;;13.37;8.83;;;3.00;99.90;;;;;;5112201;28;20566;-67
2021/12/01 09:40:20;;;;;;;14.27;11.17;;;3.00;99.90;;;;;;5112080;28;20221;-68
2021/12/01 09:42:51;;;;;;;12.57;9.80;;;3.00;99.90;;;;;;5112163;28;20218;-67
2021/12/01 09:45:21;;;;;;;11.87;9.10;;;3.00;99.90;;;;;;5122063;28;20218;-66
2021/12/01 09:47:48;;;;;;;12.67;9.47;;;3.00;99.90;;;;;;5132492;28;20255;-67
2021/12/01 09:50:18;;;;;;;12.60;9.60;;;2.90;99.90;;;;;;5132201;28;20218;-67
2021/12/01 09:52:45;;;;;;;12.23;9.00;;;2.80;99.90;;;;;;5132394;28;20198;-66
2021/12/01 09:55:14;;;;;;;13.37;9.80;;;2.70;99.90;;;;;;5127479;28;20202;-68
2021/12/01 09:57:54;;;;;;;12.70;10.03;;;2.70;99.90;;;;;;5132375;28;20210;-65
2021/12/01 10:00:21;;;;;;;13.60;9.33;;;2.70;99.90;;;;;;5131064;27;20191;-67
2021/12/01 10:02:48;;;;;;;13.03;9.80;;;2.70;99.90;;;;;;5132376;28;20214;-67
2021/12/01 10:06:04;;;;;;;14.37;9.27;;;2.70;99.90;;;;;;5127579;27;20206;-69
2021/12/01 10:08:34;;;;;;;14.17;10.50;;;2.70;99.90;;;;;;5090330;28;20243;-67
2021/12/01 10:11:06;;;;;;;13.97;10.80;;;2.60;99.90;;;;;;5121286;28;20206;-70
2021/12/01 10:13:37;;;;;;;14.33;11.00;;;2.60;99.90;;;;;;5130850;28;20723;-66
2021/12/01 10:16:06;;;;;;;14.43;11.37;;;2.70;99.90;;;;;;5131825;28;20183;-67
2021/12/01 10:18:39;;;;;;;12.03;9.90;;;2.60;99.90;;;;;;5132542;28;20226;-68
2021/12/01 10:21:12;;;;;;;15.20;10.70;;;2.50;99.90;;;;;;5131914;27;20211;-67
2021/12/01 10:23:43;;;;;;;13.97;10.37;;;2.60;99.90;;;;;;5132011;28;20203;-67
2021/12/01 10:26:13;;;;;;;15.10;11.07;;;2.60;99.90;;;;;;5132574;27;20255;-68
2021/12/01 10:28:43;;;;;;;12.30;9.83;;;2.60;99.90;;;;;;5132362;27;20218;-69
2021/12/01 10:31:10;;;;;;;13.57;10.23;;;2.50;99.90;;;;;;5132087;28;20231;-67
2021/12/01 10:33:37;;;;;;;13.10;10.37;;;2.50;99.90;;;;;;5132123;28;20207;-68
2021/12/01 10:36:07;;;;;;;13.47;10.17;;;2.40;99.90;;;;;;5130529;28;20725;-69
2021/12/01 10:38:39;;;;;;;11.90;9.23;;;2.40;99.90;;;;;;5123651;28;20195;-68
2021/12/01 10:41:09;;;;;;;15.43;11.90;;;2.40;99.90;;;;;;5129350;28;20686;-68
2021/12/01 10:43:39;;;;;;;15.27;12.13;;;2.50;99.90;;;;;;5130796;28;20683;-68
2021/12/01 10:46:09;;;;;;;14.70;11.30;;;2.50;99.90;;;;;;5130836;27;20262;-69
2021/12/01 10:48:36;;;;;;;13.93;10.63;;;2.50;99.90;;;;;;5135522;27;20214;-69
2021/12/01 10:51:04;;;;;;;13.80;10.40;;;2.50;99.90;;;;;;5135449;27;20279;-70
2021/12/01 10:53:31;;;;;;;15.13;10.73;;;2.60;99.90;;;;;;5135660;27;20217;-69
2021/12/01 10:56:02;;;;;;;13.33;10.43;;;2.60;99.90;;;;;;5135424;27;20251;-69
2021/12/01 10:58:33;;;;;;;14.47;11.20;;;2.60;99.90;;;;;;5135731;27;20236;-69
2021/12/01 11:01:02;;;;;;;12.93;10.37;;;2.60;99.90;;;;;;5135632;27;20447;-69
2021/12/01 11:03:30;;;;;;;14.57;11.60;;;2.60;99.90;;;;;;5135501;27;20279;-70
2021/12/01 11:06:08;;;;;;;18.10;12.17;;;2.60;99.90;;;;;;5135240;27;20293;-69
2021/12/01 11:08:37;;;;;;;15.23;11.70;;;2.70;99.90;;;;;;5114625;28;20201;-68
2021/12/01 11:11:08;;;;;;;15.23;11.07;;;2.70;99.90;;;;;;5114634;27;20311;-69
2021/12/01 11:13:36;;;;;;;14.07;10.57;;;2.70;99.90;;;;;;5114293;28;20239;-68
2021/12/01 11:16:07;;;;;;;15.07;11.47;;;2.60;99.90;;;;;;5114372;28;20203;-69
2021/12/01 11:18:37;;;;;;;23.50;16.47;;;2.60;99.90;;;;;;5127279;27;20295;-66
2021/12/01 11:21:07;;;;;;;15.70;11.43;;;2.60;99.90;;;;;;5134273;27;21052;-69
2021/12/01 11:23:36;;;;;;;14.50;10.90;;;2.60;99.90;;;;;;5134832;27;20183;-68
2021/12/01 11:26:07;;;;;;;16.40;12.13;;;2.60;99.90;;;;;;5134729;27;20562;-68
2021/12/01 11:28:37;;;;;;;13.90;10.83;;;2.60;99.90;;;;;;5134070;27;20199;-69
2021/12/01 11:31:06;;;;;;;17.63;12.70;;;2.60;99.90;;;;;;5134693;27;20688;-67
2021/12/01 11:33:34;;;;;;;15.87;11.63;;;2.60;99.90;;;;;;5134481;27;20207;-68
2021/12/01 11:36:04;;;;;;;13.73;10.50;;;2.70;99.90;;;;;;5134220;27;20982;-68
2021/12/01 11:38:31;;;;;;;13.00;10.00;;;2.70;99.90;;;;;;5138529;27;20201;-67
2021/12/01 11:41:00;;;;;;;11.97;9.53;;;2.80;99.90;;;;;;5155333;27;20208;-69
2021/12/01 11:43:31;;;;;;;15.40;10.97;;;2.70;99.90;;;;;;5155382;27;20206;-69
2021/12/01 11:45:58;;;;;;;14.03;10.87;;;2.70;99.90;;;;;;5133668;27;20707;-66
2021/12/01 11:48:28;;;;;;;14.60;10.17;;;2.80;99.90;;;;;;5154930;27;20202;-66
2021/12/01 11:51:06;;;;;;;14.13;10.20;;;2.90;99.90;;;;;;5154494;27;20577;-67
2021/12/01 11:53:37;;;;;;;13.70;10.23;;;2.80;99.90;;;;;;5154998;27;20182;-66
2021/12/01 11:56:12;;;;;;;14.00;10.00;;;2.90;99.90;;;;;;5154796;27;20186;-67
2021/12/01 11:59:02;;;;;;;14.33;10.63;;;2.90;99.90;;;;;;5115022;27;20525;-70
2021/12/01 12:01:47;;;;;;;16.23;11.57;;;2.90;99.90;;;;;;5134302;27;20198;-67
2021/12/01 12:04:39;;;;;;;13.63;10.77;;;3.00;99.90;;;;;;5134101;27;20205;-67
2021/12/01 12:07:10;;;;;;;13.27;10.47;;;3.00;99.90;;;;;;5133782;27;20187;-68
2021/12/01 12:09:38;;;;;;;15.27;10.63;;;3.00;99.90;;;;;;5135005;27;20190;-69
2021/12/01 12:12:17;;;;;;;14.30;10.40;;;3.00;99.90;;;;;;5134182;27;20230;-67
2021/12/01 12:14:55;;;;;;;13.13;9.07;;;3.00;99.90;;;;;;5133301;27;20240;-68
2021/12/01 12:17:36;;;;;;;13.03;9.50;;;3.00;99.90;;;;;;5133812;27;20186;-68
2021/12/01 12:20:13;;;;;;;11.30;8.73;;;3.00;99.90;;;;;;5134050;27;20199;-69
2021/12/01 12:22:59;;;;;;;11.20;8.70;;;3.10;99.90;;;;;;5133487;27;20191;-69
2021/12/01 12:25:45;;;;;;;10.50;8.20;;;3.10;99.90;;;;;;5133504;27;20186;-68
2021/12/01 12:28:31;;;;;;;11.33;8.40;;;3.00;99.90;;;;;;5132831;27;20195;-67
2021/12/01 12:31:03;;;;;;;12.00;8.63;;;3.00;99.90;;;;;;5132753;27;20213;-67
2021/12/01 12:33:32;;;;;;;13.93;9.73;;;3.00;99.90;;;;;;5131228;27;20195;-66
2021/12/01 12:36:03;;;;;;;12.30;8.87;;;3.00;99.90;;;;;;5133398;27;20209;-68
2021/12/01 12:38:31;;;;;;;19.73;12.03;;;2.90;99.90;;;;;;5133376;27;20199;-68
2021/12/01 12:41:06;;;;;;;15.50;11.00;;;2.90;99.90;;;;;;5133130;27;20206;-67
2021/12/01 12:43:33;;;;;;;11.47;8.90;;;3.00;99.90;;;;;;5133490;27;20625;-69
2021/12/01 12:46:05;;;;;;;8.73;6.43;;;2.90;99.90;;;;;;5153684;27;20636;-69
2021/12/01 12:48:34;;;;;;;7.90;5.30;;;2.60;99.90;;;;;;5149113;27;20202;-67
2021/12/01 12:51:08;;;;;;;7.60;5.07;;;2.40;99.90;;;;;;5133845;27;20818;-68
2021/12/01 12:53:35;;;;;;;7.27;5.53;;;2.30;99.90;;;;;;5132996;27;20644;-68